createdAt,value
2016-01-16T00:00:05.616Z,0
2016-01-16T00:03:05.656Z,0
2016-01-16T00:04:05.862Z,0
2016-01-16T00:06:05.648Z,0
2016-01-16T00:07:05.869Z,0
2016-01-16T00:08:20.215Z,0
2016-01-16T00:10:05.706Z,0
2016-01-16T00:11:05.895Z,0
2016-01-16T00:12:05.196Z,0
2016-01-16T00:13:19.809Z,0
2016-01-16T00:14:05.746Z,0
2016-01-16T00:15:05.765Z,0
2016-01-16T00:16:05.829Z,0
2016-01-16T00:17:06.160Z,0
2016-01-16T00:19:06.556Z,0
2016-01-16T00:20:05.809Z,0
2016-01-16T00:21:05.765Z,0
2016-01-16T00:22:06.190Z,0
2016-01-16T00:23:06.004Z,0
2016-01-16T00:24:06.445Z,0
2016-01-16T00:25:05.323Z,0
2016-01-16T00:26:05.841Z,0
2016-01-16T00:27:05.312Z,0
2016-01-16T00:28:06.018Z,0
2016-01-16T00:29:19.975Z,0
2016-01-16T00:30:05.931Z,0
2016-01-16T00:31:20.168Z,0
2016-01-16T00:32:05.859Z,0
2016-01-16T00:33:06.064Z,0
2016-01-16T00:34:06.129Z,0
2016-01-16T00:35:05.882Z,0
2016-01-16T00:36:06.150Z,0
2016-01-16T00:38:48.218Z,0
2016-01-16T00:39:06.345Z,0
2016-01-16T00:40:06.114Z,0
2016-01-16T00:42:06.167Z,0
2016-01-16T00:43:05.966Z,0
2016-01-16T00:44:06.235Z,0
2016-01-16T00:45:05.956Z,0
2016-01-16T00:46:06.162Z,0
2016-01-16T00:47:06.570Z,0
2016-01-16T00:49:20.092Z,0
2016-01-16T00:50:06.014Z,0
2016-01-16T00:51:06.220Z,0
2016-01-16T00:52:06.020Z,0
2016-01-16T00:53:06.631Z,0
2016-01-16T00:54:06.947Z,0
2016-01-16T00:55:06.465Z,0
2016-01-16T00:56:20.158Z,0
2016-01-16T00:57:06.095Z,0
2016-01-16T00:58:20.395Z,0
2016-01-16T00:59:06.461Z,0
2016-01-16T01:00:06.261Z,0
2016-01-16T01:01:20.404Z,0
2016-01-16T01:02:06.719Z,0
2016-01-16T01:03:06.550Z,0
2016-01-16T01:04:06.318Z,0
2016-01-16T01:05:06.572Z,0
2016-01-16T01:06:06.356Z,0
2016-01-16T01:07:06.140Z,0
2016-01-16T01:08:06.392Z,0
2016-01-16T01:09:06.176Z,0
2016-01-16T01:10:06.226Z,0
2016-01-16T01:11:20.650Z,0
2016-01-16T01:12:06.419Z,0
2016-01-16T01:13:06.234Z,0
2016-01-16T01:14:06.206Z,0
2016-01-16T01:15:05.942Z,0
2016-01-16T01:16:20.305Z,0
2016-01-16T01:17:06.245Z,0
2016-01-16T01:18:06.248Z,0
2016-01-16T01:19:06.267Z,0
2016-01-16T01:20:20.347Z,0
2016-01-16T01:21:06.303Z,0
2016-01-16T01:22:07.822Z,0
2016-01-16T01:23:06.478Z,0
2016-01-16T01:24:06.699Z,0
2016-01-16T01:25:05.780Z,0
2016-01-16T01:26:05.985Z,0
2016-01-16T01:27:06.317Z,0
2016-01-16T01:28:06.522Z,0
2016-01-16T01:30:06.840Z,0
2016-01-16T01:31:06.327Z,0
2016-01-16T01:32:06.549Z,0
2016-01-16T01:33:06.348Z,0
2016-01-16T01:34:06.414Z,0
2016-01-16T01:35:06.619Z,0
2016-01-16T01:36:06.607Z,0
2016-01-16T01:37:06.379Z,0
2016-01-16T01:38:08.716Z,0
2016-01-16T01:40:20.824Z,0
2016-01-16T01:41:35.107Z,0
2016-01-16T01:42:06.513Z,0
2016-01-16T01:43:06.657Z,0
2016-01-16T01:44:06.519Z,0
2016-01-16T01:45:06.678Z,0
2016-01-16T01:46:06.446Z,0
2016-01-16T01:47:07.011Z,0
2016-01-16T01:48:07.358Z,0
2016-01-16T01:49:20.785Z,0
2016-01-16T01:51:07.118Z,0
2016-01-16T01:52:06.482Z,0
2016-01-16T01:53:20.627Z,0
2016-01-16T01:54:06.752Z,0
2016-01-16T01:55:34.710Z,0
2016-01-16T01:56:06.742Z,0
2016-01-16T01:57:06.073Z,0
2016-01-16T01:58:06.545Z,0
2016-01-16T01:59:06.531Z,0
2016-01-16T02:00:06.690Z,0
2016-01-16T02:01:06.833Z,0
2016-01-16T02:02:06.790Z,0
2016-01-16T02:03:06.948Z,0
2016-01-16T02:04:06.545Z,0
2016-01-16T02:06:06.784Z,0
2016-01-16T02:07:06.622Z,0
2016-01-16T02:08:06.474Z,0
2016-01-16T02:09:06.795Z,0
2016-01-16T02:10:06.818Z,0
2016-01-16T02:11:06.622Z,0
2016-01-16T02:13:06.995Z,0
2016-01-16T02:14:06.634Z,0
2016-01-16T02:15:06.602Z,0
2016-01-16T02:16:06.804Z,0
2016-01-16T02:17:06.602Z,0
2016-01-16T02:18:06.821Z,0
2016-01-16T02:19:06.651Z,0
2016-01-16T02:20:20.730Z,0
2016-01-16T02:21:06.622Z,0
2016-01-16T02:22:07.061Z,0
2016-01-16T02:23:06.673Z,0
2016-01-16T02:24:06.863Z,0
2016-01-16T02:25:06.663Z,0
2016-01-16T02:26:20.836Z,0
2016-01-16T02:27:06.714Z,0
2016-01-16T02:28:06.670Z,0
2016-01-16T02:30:06.910Z,0
2016-01-16T02:31:06.679Z,0
2016-01-16T02:32:20.821Z,0
2016-01-16T02:33:21.027Z,0
2016-01-16T02:34:06.764Z,0
2016-01-16T02:35:06.657Z,0
2016-01-16T02:36:06.895Z,0
2016-01-16T02:37:20.835Z,0
2016-01-16T02:38:21.104Z,0
2016-01-16T02:39:06.982Z,0
2016-01-16T02:40:21.109Z,0
2016-01-16T02:41:06.846Z,0
2016-01-16T02:43:07.211Z,0
2016-01-16T02:46:07.609Z,0
2016-01-16T02:47:07.472Z,0
2016-01-16T02:48:21.818Z,0
2016-01-16T02:49:07.102Z,0
2016-01-16T02:50:07.292Z,0
2016-01-16T02:51:06.857Z,0
2016-01-16T02:52:06.844Z,0
2016-01-16T02:53:07.097Z,0
2016-01-16T02:54:21.631Z,0
2016-01-16T02:55:21.634Z,0
2016-01-16T02:56:21.417Z,0
2016-01-16T02:57:06.592Z,0
2016-01-16T02:58:06.939Z,0
2016-01-16T02:59:07.130Z,0
2016-01-16T03:00:07.164Z,0
2016-01-16T03:01:06.947Z,0
2016-01-16T03:02:06.997Z,0
2016-01-16T03:03:06.952Z,0
2016-01-16T03:04:07.346Z,0
2016-01-16T03:05:06.989Z,0
2016-01-16T03:06:06.679Z,0
2016-01-16T03:08:07.013Z,0
2016-01-16T03:09:07.672Z,0
2016-01-16T03:10:21.128Z,0
2016-01-16T03:11:07.285Z,0
2016-01-16T03:12:21.102Z,0
2016-01-16T03:13:07.086Z,0
2016-01-16T03:14:07.043Z,0
2016-01-16T03:15:07.232Z,0
2016-01-16T03:16:07.485Z,0
2016-01-16T03:17:07.286Z,0
2016-01-16T03:18:07.054Z,0
2016-01-16T03:19:21.184Z,0
2016-01-16T03:20:21.405Z,0
2016-01-16T03:21:08.124Z,0
2016-01-16T03:22:06.111Z,0
2016-01-16T03:23:07.068Z,0
2016-01-16T03:24:07.164Z,0
2016-01-16T03:26:07.326Z,0
2016-01-16T03:27:07.110Z,0
2016-01-16T03:28:06.596Z,0
2016-01-16T03:29:21.474Z,0
2016-01-16T03:30:21.257Z,0
2016-01-16T03:31:07.167Z,0
2016-01-16T03:33:21.470Z,0
2016-01-16T03:34:07.394Z,0
2016-01-16T03:36:07.212Z,0
2016-01-16T03:37:07.637Z,0
2016-01-16T03:38:07.405Z,0
2016-01-16T03:39:07.565Z,0
2016-01-16T03:40:07.395Z,0
2016-01-16T03:41:21.351Z,0
2016-01-16T03:42:08.276Z,0
2016-01-16T03:43:35.466Z,0
2016-01-16T03:44:21.546Z,0
2016-01-16T03:45:08.049Z,0
2016-01-16T03:46:07.286Z,0
2016-01-16T03:47:07.493Z,0
2016-01-16T03:48:07.495Z,0
2016-01-16T03:49:21.576Z,0
2016-01-16T03:50:07.313Z,0
2016-01-16T03:51:07.331Z,0
2016-01-16T03:52:07.287Z,0
2016-01-16T03:53:07.712Z,0
2016-01-16T03:54:07.558Z,0
2016-01-16T03:55:07.311Z,0
2016-01-16T03:56:07.345Z,0
2016-01-16T03:57:06.876Z,0
2016-01-16T03:58:07.926Z,0
2016-01-16T03:59:07.382Z,0
2016-01-16T04:00:21.481Z,0
2016-01-16T04:01:07.403Z,0
2016-01-16T04:02:07.578Z,0
2016-01-16T04:03:07.612Z,0
2016-01-16T04:04:07.395Z,0
2016-01-16T04:05:07.820Z,0
2016-01-16T04:06:07.588Z,0
2016-01-16T04:07:07.106Z,0
2016-01-16T04:08:07.594Z,0
2016-01-16T04:09:07.706Z,0
2016-01-16T04:10:21.537Z,0
2016-01-16T04:11:07.447Z,0
2016-01-16T04:12:07.450Z,0
2016-01-16T04:14:07.501Z,0
2016-01-16T04:15:07.488Z,0
2016-01-16T04:16:08.116Z,0
2016-01-16T04:17:07.509Z,0
2016-01-16T04:18:21.637Z,0
2016-01-16T04:19:07.469Z,0
2016-01-16T04:20:06.518Z,0
2016-01-16T04:21:07.708Z,0
2016-01-16T04:22:07.523Z,0
2016-01-16T04:23:07.042Z,0
2016-01-16T04:24:35.779Z,0
2016-01-16T04:25:07.750Z,0
2016-01-16T04:26:07.550Z,0
2016-01-16T04:27:07.522Z,0
2016-01-16T04:28:07.774Z,0
2016-01-16T04:29:21.699Z,0
2016-01-16T04:30:07.592Z,0
2016-01-16T04:31:07.626Z,0
2016-01-16T04:32:21.161Z,0
2016-01-16T04:33:07.601Z,0
2016-01-16T04:34:07.635Z,0
2016-01-16T04:36:07.905Z,0
2016-01-16T04:38:07.661Z,0
2016-01-16T04:39:21.930Z,0
2016-01-16T04:40:07.649Z,0
2016-01-16T04:41:07.682Z,0
2016-01-16T04:42:07.872Z,0
2016-01-16T04:44:07.706Z,0
2016-01-16T04:45:08.038Z,0
2016-01-16T04:46:07.681Z,0
2016-01-16T04:47:07.715Z,0
2016-01-16T04:48:07.905Z,0
2016-01-16T04:49:07.719Z,0
2016-01-16T04:51:07.725Z,0
2016-01-16T04:52:07.728Z,0
2016-01-16T04:53:07.919Z,0
2016-01-16T04:54:07.734Z,0
2016-01-16T04:55:21.877Z,0
2016-01-16T04:56:07.802Z,0
2016-01-16T04:58:07.791Z,0
2016-01-16T04:59:07.951Z,0
2016-01-16T05:00:07.313Z,0
2016-01-16T05:01:07.674Z,0
2016-01-16T05:02:07.866Z,0
2016-01-16T05:03:08.008Z,0
2016-01-16T05:04:07.808Z,0
2016-01-16T05:05:08.045Z,0
2016-01-16T05:06:21.924Z,0
2016-01-16T05:07:07.848Z,0
2016-01-16T05:08:07.913Z,0
2016-01-16T05:09:08.291Z,0
2016-01-16T05:10:07.887Z,0
2016-01-16T05:11:07.874Z,0
2016-01-16T05:12:08.065Z,0
2016-01-16T05:14:07.913Z,0
2016-01-16T05:15:08.088Z,0
2016-01-16T05:16:07.903Z,0
2016-01-16T05:17:07.875Z,0
2016-01-16T05:18:08.315Z,0
2016-01-16T05:19:07.896Z,0
2016-01-16T05:20:22.040Z,0
2016-01-16T05:21:22.042Z,0
2016-01-16T05:22:07.935Z,0
2016-01-16T05:23:08.204Z,0
2016-01-16T05:24:07.956Z,0
2016-01-16T05:25:07.959Z,0
2016-01-16T05:26:08.165Z,0
2016-01-16T05:27:08.027Z,0
2016-01-16T05:28:07.956Z,0
2016-01-16T05:29:08.022Z,0
2016-01-16T05:30:07.998Z,0
2016-01-16T05:31:08.235Z,0
2016-01-16T05:32:08.035Z,0
2016-01-16T05:33:22.319Z,0
2016-01-16T05:34:08.008Z,0
2016-01-16T05:35:08.027Z,0
2016-01-16T05:36:08.249Z,0
2016-01-16T05:37:08.236Z,0
2016-01-16T05:39:08.255Z,0
2016-01-16T05:40:08.054Z,0
2016-01-16T05:41:08.463Z,0
2016-01-16T05:42:08.044Z,0
2016-01-16T05:43:08.094Z,0
2016-01-16T05:44:08.330Z,0
2016-01-16T05:45:22.196Z,0
2016-01-16T05:46:08.305Z,0
2016-01-16T05:47:22.654Z,0
2016-01-16T05:48:22.234Z,0
2016-01-16T05:49:22.237Z,0
2016-01-16T05:50:08.409Z,0
2016-01-16T05:51:08.147Z,0
2016-01-16T05:53:08.183Z,0
2016-01-16T05:54:08.390Z,0
2016-01-16T05:55:07.656Z,0
2016-01-16T05:56:08.378Z,0
2016-01-16T05:57:08.616Z,0
2016-01-16T05:58:08.181Z,0
2016-01-16T05:59:08.387Z,0
2016-01-16T06:00:08.187Z,0
2016-01-16T06:01:08.236Z,0
2016-01-16T06:02:08.457Z,0
2016-01-16T06:03:07.742Z,0
2016-01-16T06:04:07.728Z,0
2016-01-16T06:05:08.465Z,0
2016-01-16T06:06:08.515Z,0
2016-01-16T06:07:08.284Z,0
2016-01-16T06:08:08.505Z,0
2016-01-16T06:09:08.273Z,0
2016-01-16T06:10:08.697Z,0
2016-01-16T06:11:08.701Z,0
2016-01-16T06:12:22.391Z,0
2016-01-16T06:13:08.347Z,0
2016-01-16T06:14:08.943Z,0
2016-01-16T06:15:08.321Z,0
2016-01-16T06:16:08.354Z,0
2016-01-16T06:17:08.747Z,0
2016-01-16T06:18:08.783Z,0
2016-01-16T06:19:22.441Z,0
2016-01-16T06:20:15.302Z,0
2016-01-16T06:21:08.430Z,0
2016-01-16T06:22:08.371Z,0
2016-01-16T06:23:08.374Z,0
2016-01-16T06:24:14.111Z,0
2016-01-16T06:25:08.394Z,0
2016-01-16T06:26:08.429Z,0
2016-01-16T06:27:22.540Z,0
2016-01-16T06:28:08.606Z,0
2016-01-16T06:29:08.171Z,0
2016-01-16T06:30:08.408Z,0
2016-01-16T06:31:08.645Z,0
2016-01-16T06:32:08.507Z,0
2016-01-16T06:33:08.854Z,0
2016-01-16T06:34:22.778Z,0
2016-01-16T06:35:08.687Z,0
2016-01-16T06:36:08.237Z,0
2016-01-16T06:37:08.006Z,0
2016-01-16T06:38:08.540Z,0
2016-01-16T06:39:08.948Z,0
2016-01-16T06:40:08.513Z,0
2016-01-16T06:41:08.610Z,0
2016-01-16T06:42:09.190Z,0
2016-01-16T06:43:08.272Z,0
2016-01-16T06:44:08.586Z,0
2016-01-16T06:45:08.605Z,0
2016-01-16T06:46:08.608Z,0
2016-01-16T06:47:08.610Z,0
2016-01-16T06:48:23.004Z,0
2016-01-16T06:49:09.413Z,0
2016-01-16T06:50:08.790Z,0
2016-01-16T06:51:08.824Z,0
2016-01-16T06:52:08.842Z,0
2016-01-16T06:53:08.830Z,0
2016-01-16T06:54:08.660Z,0
2016-01-16T06:55:08.226Z,0
2016-01-16T06:56:08.682Z,0
2016-01-16T06:57:08.652Z,0
2016-01-16T06:58:08.702Z,0
2016-01-16T06:59:09.096Z,0
2016-01-16T07:00:08.958Z,0
2016-01-16T07:01:08.727Z,0
2016-01-16T07:02:08.729Z,0
2016-01-16T07:03:08.747Z,0
2016-01-16T07:04:08.953Z,0
2016-01-16T07:05:08.769Z,0
2016-01-16T07:06:08.771Z,0
2016-01-16T07:07:08.977Z,0
2016-01-16T07:08:08.996Z,0
2016-01-16T07:09:08.795Z,0
2016-01-16T07:10:08.329Z,0
2016-01-16T07:11:08.801Z,0
2016-01-16T07:12:23.178Z,0
2016-01-16T07:13:08.790Z,0
2016-01-16T07:14:09.090Z,0
2016-01-16T07:15:22.968Z,0
2016-01-16T07:16:08.720Z,0
2016-01-16T07:17:09.067Z,0
2016-01-16T07:18:09.070Z,0
2016-01-16T07:20:09.122Z,0
2016-01-16T07:21:08.905Z,0
2016-01-16T07:22:08.909Z,0
2016-01-16T07:23:08.942Z,0
2016-01-16T07:24:09.117Z,0
2016-01-16T07:25:08.917Z,0
2016-01-16T07:26:09.184Z,0
2016-01-16T07:27:08.937Z,0
2016-01-16T07:28:09.361Z,0
2016-01-16T07:29:08.989Z,0
2016-01-16T07:30:08.993Z,0
2016-01-16T07:31:23.730Z,0
2016-01-16T07:32:08.998Z,0
2016-01-16T07:33:23.110Z,0
2016-01-16T07:34:09.644Z,0
2016-01-16T07:35:09.444Z,0
2016-01-16T07:36:09.009Z,0
2016-01-16T07:37:09.043Z,0
2016-01-16T07:38:09.233Z,0
2016-01-16T07:39:09.079Z,0
2016-01-16T07:40:09.066Z,0
2016-01-16T07:41:09.100Z,0
2016-01-16T07:42:09.274Z,0
2016-01-16T07:43:09.340Z,0
2016-01-16T07:44:09.124Z,0
2016-01-16T07:45:09.111Z,0
2016-01-16T07:46:09.114Z,0
2016-01-16T07:47:09.179Z,0
2016-01-16T07:48:09.369Z,0
2016-01-16T07:49:09.076Z,0
2016-01-16T07:50:09.390Z,0
2016-01-16T07:51:09.221Z,0
2016-01-16T07:52:09.395Z,0
2016-01-16T07:53:08.726Z,0
2016-01-16T07:54:23.573Z,0
2016-01-16T07:55:09.217Z,0
2016-01-16T07:56:23.970Z,0
2016-01-16T07:57:09.456Z,0
2016-01-16T07:58:09.222Z,0
2016-01-16T07:59:09.256Z,0
2016-01-16T08:00:09.258Z,0
2016-01-16T08:01:09.480Z,0
2016-01-16T08:02:09.139Z,0
2016-01-16T08:03:37.770Z,0
2016-01-16T08:04:23.397Z,0
2016-01-16T08:05:09.366Z,0
2016-01-16T08:06:23.465Z,0
2016-01-16T08:07:09.543Z,0
2016-01-16T08:08:09.514Z,0
2016-01-16T08:09:09.752Z,0
2016-01-16T08:10:09.363Z,0
2016-01-16T08:11:09.382Z,0
2016-01-16T08:12:23.513Z,0
2016-01-16T08:13:09.341Z,0
2016-01-16T08:14:09.405Z,0
2016-01-16T08:15:09.439Z,0
2016-01-16T08:16:09.629Z,0
2016-01-16T08:17:09.460Z,0
2016-01-16T08:18:09.416Z,0
2016-01-16T08:19:09.450Z,0
2016-01-16T08:20:09.468Z,0
2016-01-16T08:21:09.440Z,0
2016-01-16T08:23:09.680Z,0
2016-01-16T08:24:09.463Z,0
2016-01-16T08:25:09.513Z,0
2016-01-16T08:26:09.876Z,0
2016-01-16T08:28:09.928Z,0
2016-01-16T08:29:09.555Z,0
2016-01-16T08:30:09.558Z,0
2016-01-16T08:31:09.562Z,0
2016-01-16T08:32:09.782Z,0
2016-01-16T08:33:09.582Z,0
2016-01-16T08:34:23.900Z,0
2016-01-16T08:35:09.618Z,0
2016-01-16T08:36:09.793Z,0
2016-01-16T08:37:23.892Z,0
2016-01-16T08:38:09.330Z,0
2016-01-16T08:39:24.132Z,0
2016-01-16T08:40:23.745Z,0
2016-01-16T08:42:09.653Z,0
2016-01-16T08:44:09.721Z,0
2016-01-16T08:45:09.645Z,0
2016-01-16T08:46:09.227Z,0
2016-01-16T08:47:09.668Z,0
2016-01-16T08:48:09.687Z,0
2016-01-16T08:49:09.720Z,0
2016-01-16T08:50:09.973Z,0
2016-01-16T08:51:09.756Z,0
2016-01-16T08:52:09.979Z,0
2016-01-16T08:53:23.887Z,0
2016-01-16T08:54:09.984Z,0
2016-01-16T08:55:10.220Z,0
2016-01-16T08:56:09.770Z,0
2016-01-16T08:57:09.570Z,0
2016-01-16T08:58:10.073Z,0
2016-01-16T08:59:10.045Z,0
2016-01-16T09:00:09.844Z,0
2016-01-16T09:01:23.992Z,0
2016-01-16T09:02:10.120Z,0
2016-01-16T09:03:09.982Z,0
2016-01-16T09:04:09.844Z,0
2016-01-16T09:05:10.081Z,0
2016-01-16T09:06:10.115Z,0
2016-01-16T09:07:09.914Z,0
2016-01-16T09:08:09.916Z,0
2016-01-16T09:09:24.044Z,0
2016-01-16T09:10:09.907Z,0
2016-01-16T09:11:09.957Z,0
2016-01-16T09:13:09.290Z,0
2016-01-16T09:14:09.933Z,0
2016-01-16T09:15:09.982Z,0
2016-01-16T09:16:10.001Z,0
2016-01-16T09:17:24.082Z,0
2016-01-16T09:18:10.412Z,0
2016-01-16T09:19:09.978Z,0
2016-01-16T09:20:10.199Z,0
2016-01-16T09:21:10.046Z,0
2016-01-16T09:22:10.034Z,0
2016-01-16T09:23:10.286Z,0
2016-01-16T09:24:24.210Z,0
2016-01-16T09:25:10.057Z,0
2016-01-16T09:26:10.482Z,0
2016-01-16T09:27:09.593Z,0
2016-01-16T09:28:10.111Z,0
2016-01-16T09:29:10.130Z,0
2016-01-16T09:30:10.164Z,0
2016-01-16T09:31:10.120Z,0
2016-01-16T09:32:10.325Z,0
2016-01-16T09:33:10.375Z,0
2016-01-16T09:34:24.268Z,0
2016-01-16T09:35:23.802Z,0
2016-01-16T09:36:10.380Z,0
2016-01-16T09:37:10.196Z,0
2016-01-16T09:38:10.230Z,0
2016-01-16T09:39:10.233Z,0
2016-01-16T09:40:10.219Z,0
2016-01-16T09:41:10.222Z,0
2016-01-16T09:42:10.242Z,0
2016-01-16T09:43:10.260Z,0
2016-01-16T09:45:10.266Z,0
2016-01-16T09:46:10.660Z,0
2016-01-16T09:47:10.459Z,0
2016-01-16T09:48:10.196Z,0
2016-01-16T09:49:10.277Z,0
2016-01-16T09:50:10.358Z,0
2016-01-16T09:51:10.501Z,0
2016-01-16T09:53:10.694Z,0
2016-01-16T09:54:23.978Z,0
2016-01-16T09:55:10.606Z,0
2016-01-16T09:56:10.625Z,0
2016-01-16T09:57:10.423Z,0
2016-01-16T09:58:10.395Z,0
2016-01-16T09:59:09.992Z,0
2016-01-16T10:00:10.432Z,0
2016-01-16T10:01:10.638Z,0
2016-01-16T10:02:10.453Z,5
2016-01-16T10:04:10.708Z,5
2016-01-16T10:05:10.477Z,5
2016-01-16T10:06:10.933Z,5
2016-01-16T10:07:10.511Z,5
2016-01-16T10:08:10.716Z,5
2016-01-16T10:09:10.547Z,5
2016-01-16T10:10:10.706Z,5
2016-01-16T10:12:10.540Z,5
2016-01-16T10:13:11.434Z,5
2016-01-16T10:14:10.077Z,5
2016-01-16T10:15:10.595Z,5
2016-01-16T10:16:10.582Z,5
2016-01-16T10:17:10.616Z,5
2016-01-16T10:18:10.602Z,5
2016-01-16T10:19:11.449Z,5
2016-01-16T10:20:10.828Z,5
2016-01-16T10:21:10.612Z,5
2016-01-16T10:22:10.662Z,5
2016-01-16T10:23:10.650Z,5
2016-01-16T10:24:25.011Z,5
2016-01-16T10:25:10.905Z,5
2016-01-16T10:26:10.876Z,5
2016-01-16T10:27:10.879Z,5
2016-01-16T10:28:10.694Z,5
2016-01-16T10:29:10.713Z,5
2016-01-16T10:30:24.841Z,5
2016-01-16T10:31:10.750Z,5
2016-01-16T10:32:10.767Z,5
2016-01-16T10:37:07.406Z,5
2016-01-16T10:38:03.688Z,5
2016-01-16T10:38:24.394Z,5
2016-01-16T10:39:35.709Z,0
2016-01-16T10:40:22.586Z,0
2016-01-16T10:42:49.592Z,0
2016-01-16T10:43:35.517Z,0
2016-01-16T10:44:21.035Z,0
2016-01-16T10:45:35.163Z,0
2016-01-16T10:46:49.259Z,0
2016-01-16T10:47:35.388Z,0
2016-01-16T10:48:36.608Z,0
2016-01-16T10:49:42.096Z,0
2016-01-16T10:53:49.561Z,0
2016-01-16T10:56:34.706Z,5
2016-01-16T11:00:04.311Z,5
2016-01-16T11:01:49.408Z,5
2016-01-16T11:06:22.953Z,5
2016-01-16T11:11:10.889Z,5
2016-01-16T11:13:06.936Z,5
2016-01-16T11:15:20.786Z,5
2016-01-16T11:16:21.758Z,10
2016-01-16T11:17:08.702Z,10
2016-01-16T11:17:56.233Z,10
2016-01-16T11:18:54.419Z,10
2016-01-16T11:21:07.303Z,20
2016-01-16T11:21:59.268Z,20
2016-01-16T11:23:54.051Z,20
2016-01-16T11:24:38.551Z,20
2016-01-16T11:25:38.240Z,20
2016-01-16T11:26:52.694Z,20
2016-01-16T11:27:52.649Z,20
2016-01-16T11:28:37.899Z,20
2016-01-16T11:29:38.806Z,20
2016-01-16T11:30:38.387Z,25
2016-01-16T11:31:39.702Z,25
2016-01-16T11:32:52.488Z,20
2016-01-16T11:33:37.973Z,20
2016-01-16T11:34:38.428Z,20
2016-01-16T11:35:38.135Z,15
2016-01-16T11:36:38.449Z,10
2016-01-16T11:37:38.531Z,5
2016-01-16T11:38:39.096Z,5
2016-01-16T11:39:38.457Z,5
2016-01-16T11:41:53.729Z,5
2016-01-16T11:42:39.310Z,5
2016-01-16T11:44:06.768Z,5
2016-01-16T11:44:38.112Z,5
2016-01-16T11:45:38.803Z,5
2016-01-16T11:46:52.726Z,5
2016-01-16T11:47:38.839Z,5
2016-01-16T11:48:38.686Z,5
2016-01-16T11:49:38.626Z,5
2016-01-16T11:50:38.832Z,5
2016-01-16T11:51:52.709Z,5
2016-01-16T11:52:38.555Z,5
2016-01-16T11:53:52.996Z,5
2016-01-16T11:54:38.827Z,5
2016-01-16T11:55:39.330Z,5
2016-01-16T11:56:53.020Z,5
2016-01-16T11:57:52.773Z,5
2016-01-16T11:58:38.822Z,5
2016-01-16T11:59:38.747Z,5
2016-01-16T12:00:38.656Z,5
2016-01-16T12:01:38.955Z,5
2016-01-16T12:02:38.239Z,5
2016-01-16T12:03:39.195Z,5
2016-01-16T12:04:38.729Z,5
2016-01-16T12:05:38.670Z,5
2016-01-16T12:06:39.031Z,5
2016-01-16T12:07:39.144Z,5
2016-01-16T12:08:53.366Z,0
2016-01-16T12:09:38.805Z,0
2016-01-16T12:10:52.886Z,0
2016-01-16T12:11:38.827Z,0
2016-01-16T12:12:38.876Z,5
2016-01-16T12:13:38.972Z,5
2016-01-16T12:14:39.521Z,5
2016-01-16T12:15:38.869Z,5
2016-01-16T12:16:38.387Z,5
2016-01-16T12:17:39.405Z,5
2016-01-16T12:18:40.907Z,5
2016-01-16T12:19:38.910Z,0
2016-01-16T12:20:39.132Z,5
2016-01-16T12:21:39.010Z,5
2016-01-16T12:22:53.043Z,5
2016-01-16T12:24:39.062Z,5
2016-01-16T12:25:53.412Z,5
2016-01-16T12:26:39.099Z,5
2016-01-16T12:27:39.320Z,5
2016-01-16T12:28:39.463Z,5
2016-01-16T12:29:53.813Z,5
2016-01-16T12:30:39.219Z,5
2016-01-16T12:32:52.618Z,5
2016-01-16T12:33:53.371Z,5
2016-01-16T12:35:39.248Z,5
2016-01-16T12:36:39.267Z,5
2016-01-16T12:38:07.506Z,5
2016-01-16T12:38:53.368Z,5
2016-01-16T12:39:39.103Z,5
2016-01-16T12:40:39.745Z,5
2016-01-16T12:41:39.561Z,5
2016-01-16T12:42:53.207Z,5
2016-01-16T12:43:39.160Z,5
2016-01-16T12:44:39.991Z,5
2016-01-16T12:45:53.230Z,5
2016-01-16T12:46:38.636Z,5
2016-01-16T12:48:39.596Z,5
2016-01-16T12:49:39.442Z,5
2016-01-16T12:50:52.791Z,5
2016-01-16T12:51:39.229Z,5
2016-01-16T12:52:40.060Z,5
2016-01-16T12:54:07.627Z,5
2016-01-16T12:54:39.252Z,5
2016-01-16T12:56:07.477Z,0
2016-01-16T12:56:39.446Z,0
2016-01-16T12:57:39.901Z,0
2016-01-16T12:58:38.779Z,0
2016-01-16T12:59:52.878Z,0
2016-01-16T13:00:39.534Z,0
2016-01-16T13:01:53.118Z,0
2016-01-16T13:02:39.288Z,0
2016-01-16T13:04:39.292Z,0
2016-01-16T13:05:39.357Z,0
2016-01-16T13:06:39.579Z,0
2016-01-16T13:07:39.550Z,0
2016-01-16T13:08:53.478Z,0
2016-01-16T13:09:39.072Z,0
2016-01-16T13:10:39.621Z,0
2016-01-16T13:11:53.517Z,0
2016-01-16T13:12:39.376Z,0
2016-01-16T13:13:39.379Z,0
2016-01-16T13:14:53.697Z,0
2016-01-16T13:15:39.634Z,0
2016-01-16T13:16:53.922Z,5
2016-01-16T13:17:39.875Z,5
2016-01-16T13:18:39.471Z,5
2016-01-16T13:19:39.692Z,5
2016-01-16T13:20:39.711Z,5
2016-01-16T13:21:39.526Z,5
2016-01-16T13:22:39.701Z,5
2016-01-16T13:23:39.515Z,5
2016-01-16T13:24:39.534Z,5
2016-01-16T13:26:07.930Z,0
2016-01-16T13:26:53.838Z,0
2016-01-16T13:27:39.541Z,0
2016-01-16T13:28:39.544Z,0
2016-01-16T13:29:54.097Z,0
2016-01-16T13:30:39.754Z,0
2016-01-16T13:31:39.802Z,0
2016-01-16T13:32:40.259Z,0
2016-01-16T13:33:39.637Z,5
2016-01-16T13:35:54.129Z,5
2016-01-16T13:36:53.928Z,5
2016-01-16T13:37:39.631Z,5
2016-01-16T13:38:39.821Z,5
2016-01-16T13:39:39.637Z,5
2016-01-16T13:40:39.937Z,5
2016-01-16T13:41:39.876Z,5
2016-01-16T13:42:39.661Z,5
2016-01-16T13:43:40.023Z,5
2016-01-16T13:44:39.884Z,5
2016-01-16T13:45:40.575Z,5
2016-01-16T13:46:40.234Z,5
2016-01-16T13:47:40.596Z,5
2016-01-16T13:48:39.973Z,5
2016-01-16T13:51:40.388Z,25
2016-01-16T13:52:40.406Z,45
2016-01-16T13:53:40.002Z,55
2016-01-16T13:54:39.802Z,60
2016-01-16T13:55:40.039Z,75
2016-01-16T13:56:39.854Z,75
2016-01-16T13:57:39.826Z,75
2016-01-16T13:58:39.813Z,65
2016-01-16T14:00:40.099Z,15
2016-01-16T14:02:40.511Z,10
2016-01-16T14:03:40.076Z,10
2016-01-16T14:04:54.004Z,5
2016-01-16T14:05:54.460Z,5
2016-01-16T14:06:39.647Z,10
2016-01-16T14:07:54.246Z,5
2016-01-16T14:08:40.371Z,5
2016-01-16T14:09:54.080Z,10
2016-01-16T14:10:54.301Z,10
2016-01-16T14:11:54.320Z,10
2016-01-16T14:12:40.038Z,10
2016-01-16T14:13:40.260Z,5
2016-01-16T14:14:40.216Z,5
2016-01-16T14:16:54.131Z,5
2016-01-16T14:18:40.304Z,5
2016-01-16T14:19:40.166Z,5
2016-01-16T14:20:54.203Z,5
2016-01-16T14:21:40.078Z,5
2016-01-16T14:22:40.096Z,5
2016-01-16T14:23:39.803Z,5
2016-01-16T14:24:40.149Z,5
2016-01-16T14:26:40.138Z,5
2016-01-16T14:27:54.269Z,0
2016-01-16T14:28:40.160Z,0
2016-01-16T14:29:40.146Z,5
2016-01-16T14:30:54.293Z,5
2016-01-16T14:31:39.699Z,5
2016-01-16T14:32:40.452Z,5
2016-01-16T14:33:40.251Z,0
2016-01-16T14:34:40.207Z,0
2016-01-16T14:35:40.210Z,0
2016-01-16T14:36:40.227Z,0
2016-01-16T14:37:40.668Z,0
2016-01-16T14:38:40.280Z,0
2016-01-16T14:39:40.315Z,0
2016-01-16T14:40:54.381Z,0
2016-01-16T14:42:54.418Z,0
2016-01-16T14:43:40.340Z,0
2016-01-16T14:44:40.342Z,0
2016-01-16T14:45:40.518Z,0
2016-01-16T14:46:40.771Z,0
2016-01-16T14:47:40.320Z,0
2016-01-16T14:48:40.822Z,0
2016-01-16T14:49:40.403Z,0
2016-01-16T14:50:40.359Z,0
2016-01-16T14:51:40.408Z,0
2016-01-16T14:52:40.380Z,0
2016-01-16T14:53:40.398Z,0
2016-01-16T14:54:39.947Z,0
2016-01-16T14:55:40.669Z,0
2016-01-16T14:56:40.906Z,0
2016-01-16T14:57:40.488Z,0
2016-01-16T14:58:40.444Z,0
2016-01-16T14:59:40.493Z,0
2016-01-16T15:00:40.683Z,0
2016-01-16T15:01:54.830Z,0
2016-01-16T15:02:54.597Z,0
2016-01-16T15:03:40.754Z,0
2016-01-16T15:04:40.538Z,0
2016-01-16T15:05:40.525Z,0
2016-01-16T15:06:40.730Z,0
2016-01-16T15:07:54.657Z,0
2016-01-16T15:08:40.767Z,0
2016-01-16T15:09:54.726Z,0
2016-01-16T15:10:54.728Z,0
2016-01-16T15:11:40.603Z,0
2016-01-16T15:12:40.606Z,0
2016-01-16T15:13:40.687Z,0
2016-01-16T15:14:41.096Z,0
2016-01-16T15:15:40.895Z,0
2016-01-16T15:16:40.679Z,0
2016-01-16T15:17:40.885Z,0
2016-01-16T15:18:40.903Z,0
2016-01-16T15:19:40.875Z,0
2016-01-16T15:20:40.721Z,0
2016-01-16T15:21:54.820Z,0
2016-01-16T15:22:40.726Z,0
2016-01-16T15:23:40.745Z,0
2016-01-16T15:24:40.764Z,0
2016-01-16T15:25:41.188Z,0
2016-01-16T15:26:40.784Z,0
2016-01-16T15:27:55.086Z,0
2016-01-16T15:28:55.089Z,0
2016-01-16T15:29:40.824Z,0
2016-01-16T15:30:40.841Z,0
2016-01-16T15:31:54.957Z,0
2016-01-16T15:32:41.425Z,0
2016-01-16T15:33:55.352Z,0
2016-01-16T15:35:54.967Z,0
2016-01-16T15:36:40.357Z,0
2016-01-16T15:37:55.019Z,0
2016-01-16T15:38:54.991Z,0
2016-01-16T15:39:40.929Z,0
2016-01-16T15:40:41.134Z,0
2016-01-16T15:41:40.902Z,0
2016-01-16T15:42:40.937Z,0
2016-01-16T15:43:41.362Z,0
2016-01-16T15:44:41.396Z,0
2016-01-16T15:45:41.007Z,0
2016-01-16T15:46:40.995Z,0
2016-01-16T15:47:41.184Z,0
2016-01-16T15:48:41.375Z,0
2016-01-16T15:49:41.174Z,0
2016-01-16T15:50:55.539Z,0
2016-01-16T15:51:55.089Z,0
2016-01-16T15:52:41.026Z,0
2016-01-16T15:53:40.528Z,0
2016-01-16T15:54:41.250Z,0
2016-01-16T15:55:55.349Z,0
2016-01-16T15:56:41.286Z,0
2016-01-16T15:57:41.242Z,0
2016-01-16T15:58:41.292Z,0
2016-01-16T15:59:41.529Z,0
2016-01-16T16:00:55.595Z,0
2016-01-16T16:01:55.253Z,0
2016-01-16T16:02:55.241Z,0
2016-01-16T16:03:41.103Z,0
2016-01-16T16:05:55.249Z,0